sensor_id;sensor_type;location;lat;lon;timestamp;temperature;humidity
48206;DHT22;33995;48.202;16.260;2023-08-06T00:01:49;15.90;99.90
48206;DHT22;33995;48.202;16.260;2023-08-06T00:04:22;15.90;99.90
48206;DHT22;33995;48.202;16.260;2023-08-06T00:06:53;15.90;99.90
48206;DHT22;33995;48.202;16.260;2023-08-06T00:09:26;15.90;99.90
48206;DHT22;33995;48.202;16.260;2023-08-06T00:11:55;16.00;99.90
48206;DHT22;33995;48.202;16.260;2023-08-06T00:14:30;16.00;99.90
48206;DHT22;33995;48.202;16.260;2023-08-06T00:17:01;16.00;99.90
48206;DHT22;33995;48.202;16.260;2023-08-06T00:19:32;15.90;99.90
48206;DHT22;33995;48.202;16.260;2023-08-06T00:22:03;15.90;99.90
48206;DHT22;33995;48.202;16.260;2023-08-06T00:24:35;15.90;99.90
48206;DHT22;33995;48.202;16.260;2023-08-06T00:27:05;15.90;99.90
48206;DHT22;33995;48.202;16.260;2023-08-06T00:29:36;15.90;99.90
48206;DHT22;33995;48.202;16.260;2023-08-06T00:32:08;15.90;99.90
48206;DHT22;33995;48.202;16.260;2023-08-06T00:34:37;15.90;99.90
48206;DHT22;33995;48.202;16.260;2023-08-06T00:37:08;15.90;99.90
48206;DHT22;33995;48.202;16.260;2023-08-06T00:39:40;15.90;99.90
48206;DHT22;33995;48.202;16.260;2023-08-06T00:42:15;15.90;99.90
48206;DHT22;33995;48.202;16.260;2023-08-06T00:44:46;15.90;99.90
48206;DHT22;33995;48.202;16.260;2023-08-06T00:47:15;15.90;99.90
48206;DHT22;33995;48.202;16.260;2023-08-06T00:49:46;15.90;99.90
48206;DHT22;33995;48.202;16.260;2023-08-06T00:52:16;15.80;99.90
48206;DHT22;33995;48.202;16.260;2023-08-06T00:54:45;15.80;99.90
48206;DHT22;33995;48.202;16.260;2023-08-06T00:57:16;15.80;99.90
48206;DHT22;33995;48.202;16.260;2023-08-06T00:59:47;15.80;99.90
48206;DHT22;33995;48.202;16.260;2023-08-06T01:02:18;15.80;99.90
48206;DHT22;33995;48.202;16.260;2023-08-06T01:04:49;15.80;99.90
48206;DHT22;33995;48.202;16.260;2023-08-06T01:16:36;15.80;99.90
48206;DHT22;33995;48.202;16.260;2023-08-06T01:19:18;15.80;99.90
48206;DHT22;33995;48.202;16.260;2023-08-06T01:21:48;15.80;99.90
48206;DHT22;33995;48.202;16.260;2023-08-06T01:24:23;15.70;99.90
48206;DHT22;33995;48.202;16.260;2023-08-06T01:27:17;15.70;99.90
48206;DHT22;33995;48.202;16.260;2023-08-06T01:30:02;15.70;99.90
48206;DHT22;33995;48.202;16.260;2023-08-06T01:32:38;15.70;99.90
48206;DHT22;33995;48.202;16.260;2023-08-06T01:35:15;15.70;99.90
48206;DHT22;33995;48.202;16.260;2023-08-06T01:38:01;15.70;99.90
48206;DHT22;33995;48.202;16.260;2023-08-06T01:40:37;15.70;99.90
48206;DHT22;33995;48.202;16.260;2023-08-06T01:43:09;15.70;99.90
48206;DHT22;33995;48.202;16.260;2023-08-06T01:45:52;15.70;99.90
48206;DHT22;33995;48.202;16.260;2023-08-06T01:48:22;15.70;99.90
48206;DHT22;33995;48.202;16.260;2023-08-06T01:50:52;15.70;99.90
48206;DHT22;33995;48.202;16.260;2023-08-06T01:53:25;15.70;99.90
48206;DHT22;33995;48.202;16.260;2023-08-06T01:55:54;15.60;99.90
48206;DHT22;33995;48.202;16.260;2023-08-06T01:58:25;15.60;99.90
48206;DHT22;33995;48.202;16.260;2023-08-06T02:00:53;15.60;99.90
48206;DHT22;33995;48.202;16.260;2023-08-06T02:03:24;15.60;99.90
48206;DHT22;33995;48.202;16.260;2023-08-06T02:05:54;15.60;99.90
48206;DHT22;33995;48.202;16.260;2023-08-06T02:08:27;15.60;99.90
48206;DHT22;33995;48.202;16.260;2023-08-06T02:10:56;15.60;99.90
48206;DHT22;33995;48.202;16.260;2023-08-06T02:13:32;15.60;99.90
48206;DHT22;33995;48.202;16.260;2023-08-06T02:16:02;15.60;99.90
48206;DHT22;33995;48.202;16.260;2023-08-06T02:18:33;15.60;99.90
48206;DHT22;33995;48.202;16.260;2023-08-06T02:21:04;15.50;99.90
48206;DHT22;33995;48.202;16.260;2023-08-06T02:23:36;15.50;99.90
48206;DHT22;33995;48.202;16.260;2023-08-06T02:26:11;15.50;99.90
48206;DHT22;33995;48.202;16.260;2023-08-06T02:28:40;15.50;99.90
48206;DHT22;33995;48.202;16.260;2023-08-06T02:31:11;15.50;99.90
48206;DHT22;33995;48.202;16.260;2023-08-06T02:33:49;15.50;99.90
48206;DHT22;33995;48.202;16.260;2023-08-06T02:36:33;15.50;99.90
48206;DHT22;33995;48.202;16.260;2023-08-06T02:39:02;15.50;99.90
48206;DHT22;33995;48.202;16.260;2023-08-06T02:41:34;15.50;99.90
48206;DHT22;33995;48.202;16.260;2023-08-06T02:44:05;15.50;99.90
48206;DHT22;33995;48.202;16.260;2023-08-06T02:46:35;15.60;99.90
48206;DHT22;33995;48.202;16.260;2023-08-06T02:49:08;15.50;99.90
48206;DHT22;33995;48.202;16.260;2023-08-06T02:51:40;15.50;99.90
48206;DHT22;33995;48.202;16.260;2023-08-06T02:54:11;15.50;99.90
48206;DHT22;33995;48.202;16.260;2023-08-06T02:56:42;15.50;99.90
48206;DHT22;33995;48.202;16.260;2023-08-06T02:59:32;15.40;99.90
48206;DHT22;33995;48.202;16.260;2023-08-06T03:02:09;15.40;99.90
48206;DHT22;33995;48.202;16.260;2023-08-06T03:05:07;15.50;99.90
48206;DHT22;33995;48.202;16.260;2023-08-06T03:07:41;15.50;99.90
48206;DHT22;33995;48.202;16.260;2023-08-06T03:10:33;15.50;99.90
48206;DHT22;33995;48.202;16.260;2023-08-06T03:13:06;15.50;99.90
48206;DHT22;33995;48.202;16.260;2023-08-06T03:15:38;15.50;99.90
48206;DHT22;33995;48.202;16.260;2023-08-06T03:18:12;15.50;99.90
48206;DHT22;33995;48.202;16.260;2023-08-06T03:20:41;15.50;99.90
48206;DHT22;33995;48.202;16.260;2023-08-06T03:23:11;15.50;99.90
48206;DHT22;33995;48.202;16.260;2023-08-06T03:25:39;15.50;99.90
48206;DHT22;33995;48.202;16.260;2023-08-06T03:28:07;15.50;99.90
48206;DHT22;33995;48.202;16.260;2023-08-06T03:30:38;15.50;99.90
48206;DHT22;33995;48.202;16.260;2023-08-06T03:33:11;15.60;99.90
48206;DHT22;33995;48.202;16.260;2023-08-06T03:35:42;15.60;99.90
48206;DHT22;33995;48.202;16.260;2023-08-06T03:38:12;15.60;99.90
48206;DHT22;33995;48.202;16.260;2023-08-06T03:40:43;15.60;99.90
48206;DHT22;33995;48.202;16.260;2023-08-06T03:43:14;15.60;99.90
48206;DHT22;33995;48.202;16.260;2023-08-06T03:45:42;15.60;99.90
48206;DHT22;33995;48.202;16.260;2023-08-06T03:48:17;15.60;99.90
48206;DHT22;33995;48.202;16.260;2023-08-06T03:50:53;15.60;99.90
48206;DHT22;33995;48.202;16.260;2023-08-06T03:53:26;15.60;99.90
48206;DHT22;33995;48.202;16.260;2023-08-06T03:55:55;15.60;99.90
48206;DHT22;33995;48.202;16.260;2023-08-06T03:58:32;15.60;99.90
48206;DHT22;33995;48.202;16.260;2023-08-06T04:01:03;15.60;99.90
48206;DHT22;33995;48.202;16.260;2023-08-06T04:03:40;15.60;99.90
48206;DHT22;33995;48.202;16.260;2023-08-06T04:06:15;15.60;99.90
48206;DHT22;33995;48.202;16.260;2023-08-06T04:08:45;15.60;99.90
48206;DHT22;33995;48.202;16.260;2023-08-06T04:11:15;15.60;99.90
48206;DHT22;33995;48.202;16.260;2023-08-06T04:13:49;15.70;99.90
48206;DHT22;33995;48.202;16.260;2023-08-06T04:16:28;15.70;99.90
48206;DHT22;33995;48.202;16.260;2023-08-06T04:18:58;15.60;99.90
48206;DHT22;33995;48.202;16.260;2023-08-06T04:21:28;15.70;99.90
48206;DHT22;33995;48.202;16.260;2023-08-06T04:23:57;15.60;99.90
48206;DHT22;33995;48.202;16.260;2023-08-06T04:26:26;15.70;99.90
48206;DHT22;33995;48.202;16.260;2023-08-06T04:29:01;15.70;99.90
48206;DHT22;33995;48.202;16.260;2023-08-06T04:31:34;15.70;99.90
48206;DHT22;33995;48.202;16.260;2023-08-06T04:34:02;15.70;99.90
48206;DHT22;33995;48.202;16.260;2023-08-06T04:36:33;15.70;99.90
48206;DHT22;33995;48.202;16.260;2023-08-06T04:39:02;15.70;99.90
48206;DHT22;33995;48.202;16.260;2023-08-06T04:41:37;15.70;99.90
48206;DHT22;33995;48.202;16.260;2023-08-06T04:44:11;15.70;99.90
48206;DHT22;33995;48.202;16.260;2023-08-06T04:46:39;15.70;99.90
48206;DHT22;33995;48.202;16.260;2023-08-06T04:49:06;15.70;99.90
48206;DHT22;33995;48.202;16.260;2023-08-06T04:51:34;15.60;99.90
48206;DHT22;33995;48.202;16.260;2023-08-06T04:54:05;15.70;99.90
48206;DHT22;33995;48.202;16.260;2023-08-06T04:56:36;15.70;99.90
48206;DHT22;33995;48.202;16.260;2023-08-06T04:59:04;15.70;99.90
48206;DHT22;33995;48.202;16.260;2023-08-06T05:01:36;15.70;99.90
48206;DHT22;33995;48.202;16.260;2023-08-06T05:04:10;15.70;99.90
48206;DHT22;33995;48.202;16.260;2023-08-06T05:06:37;15.70;99.90
48206;DHT22;33995;48.202;16.260;2023-08-06T05:09:12;15.70;99.90
48206;DHT22;33995;48.202;16.260;2023-08-06T05:11:42;15.70;99.90
48206;DHT22;33995;48.202;16.260;2023-08-06T05:14:14;15.70;99.90
48206;DHT22;33995;48.202;16.260;2023-08-06T05:16:47;15.70;99.90
48206;DHT22;33995;48.202;16.260;2023-08-06T05:19:17;15.70;99.90
48206;DHT22;33995;48.202;16.260;2023-08-06T05:21:51;15.70;99.90
48206;DHT22;33995;48.202;16.260;2023-08-06T05:24:21;15.70;99.90
48206;DHT22;33995;48.202;16.260;2023-08-06T05:26:51;15.70;99.90
48206;DHT22;33995;48.202;16.260;2023-08-06T05:29:21;15.70;99.90
48206;DHT22;33995;48.202;16.260;2023-08-06T05:31:55;15.70;99.90
48206;DHT22;33995;48.202;16.260;2023-08-06T05:34:27;15.80;99.90
48206;DHT22;33995;48.202;16.260;2023-08-06T05:36:56;15.80;99.90
48206;DHT22;33995;48.202;16.260;2023-08-06T05:39:23;15.80;99.90
48206;DHT22;33995;48.202;16.260;2023-08-06T05:41:56;15.90;99.90
48206;DHT22;33995;48.202;16.260;2023-08-06T05:44:31;15.90;99.90
48206;DHT22;33995;48.202;16.260;2023-08-06T05:47:02;15.90;99.90
48206;DHT22;33995;48.202;16.260;2023-08-06T05:49:34;15.90;99.90
48206;DHT22;33995;48.202;16.260;2023-08-06T05:52:04;15.90;99.90
48206;DHT22;33995;48.202;16.260;2023-08-06T05:54:35;15.90;99.90
48206;DHT22;33995;48.202;16.260;2023-08-06T05:57:06;16.00;99.90
48206;DHT22;33995;48.202;16.260;2023-08-06T05:59:37;16.00;99.90
48206;DHT22;33995;48.202;16.260;2023-08-06T06:02:05;16.00;99.90
48206;DHT22;33995;48.202;16.260;2023-08-06T06:04:43;16.00;99.90
48206;DHT22;33995;48.202;16.260;2023-08-06T06:07:15;16.00;99.90
48206;DHT22;33995;48.202;16.260;2023-08-06T06:09:43;16.00;99.90
48206;DHT22;33995;48.202;16.260;2023-08-06T06:12:11;16.10;99.90
48206;DHT22;33995;48.202;16.260;2023-08-06T06:14:42;16.10;99.90
48206;DHT22;33995;48.202;16.260;2023-08-06T06:17:13;16.10;99.90
48206;DHT22;33995;48.202;16.260;2023-08-06T06:19:46;16.10;99.90
48206;DHT22;33995;48.202;16.260;2023-08-06T06:22:14;16.10;99.90
48206;DHT22;33995;48.202;16.260;2023-08-06T06:24:44;16.10;99.90
48206;DHT22;33995;48.202;16.260;2023-08-06T06:27:15;16.20;99.90
48206;DHT22;33995;48.202;16.260;2023-08-06T06:29:46;16.20;99.90
48206;DHT22;33995;48.202;16.260;2023-08-06T06:32:16;16.20;99.90
48206;DHT22;33995;48.202;16.260;2023-08-06T06:34:46;16.30;99.90
48206;DHT22;33995;48.202;16.260;2023-08-06T06:37:22;16.30;99.90
48206;DHT22;33995;48.202;16.260;2023-08-06T06:39:53;16.30;99.90
48206;DHT22;33995;48.202;16.260;2023-08-06T06:42:24;16.30;99.90
48206;DHT22;33995;48.202;16.260;2023-08-06T06:45:00;16.30;99.90
48206;DHT22;33995;48.202;16.260;2023-08-06T06:47:30;16.30;99.90
48206;DHT22;33995;48.202;16.260;2023-08-06T06:49:59;16.40;99.90
48206;DHT22;33995;48.202;16.260;2023-08-06T06:52:32;16.40;99.90
48206;DHT22;33995;48.202;16.260;2023-08-06T06:55:05;16.40;99.90
48206;DHT22;33995;48.202;16.260;2023-08-06T06:57:47;16.40;99.90
48206;DHT22;33995;48.202;16.260;2023-08-06T07:00:18;16.40;99.90
48206;DHT22;33995;48.202;16.260;2023-08-06T07:02:46;16.40;99.90
48206;DHT22;33995;48.202;16.260;2023-08-06T07:05:16;16.50;99.90
48206;DHT22;33995;48.202;16.260;2023-08-06T07:07:48;16.50;99.90
48206;DHT22;33995;48.202;16.260;2023-08-06T07:10:19;16.50;99.90
48206;DHT22;33995;48.202;16.260;2023-08-06T07:12:50;16.50;99.90
48206;DHT22;33995;48.202;16.260;2023-08-06T07:15:19;16.50;99.90
48206;DHT22;33995;48.202;16.260;2023-08-06T07:17:49;16.50;99.90
48206;DHT22;33995;48.202;16.260;2023-08-06T07:20:21;16.50;99.90
48206;DHT22;33995;48.202;16.260;2023-08-06T07:22:50;16.50;99.90
48206;DHT22;33995;48.202;16.260;2023-08-06T07:25:18;16.50;99.90
48206;DHT22;33995;48.202;16.260;2023-08-06T07:27:52;16.60;99.90
48206;DHT22;33995;48.202;16.260;2023-08-06T07:30:25;16.60;99.90
48206;DHT22;33995;48.202;16.260;2023-08-06T07:32:54;16.60;99.90
48206;DHT22;33995;48.202;16.260;2023-08-06T07:35:28;16.60;99.90
48206;DHT22;33995;48.202;16.260;2023-08-06T07:38:00;16.70;99.90
48206;DHT22;33995;48.202;16.260;2023-08-06T07:40:36;16.70;99.90
48206;DHT22;33995;48.202;16.260;2023-08-06T07:43:06;16.70;99.90
48206;DHT22;33995;48.202;16.260;2023-08-06T07:45:34;16.70;99.90
48206;DHT22;33995;48.202;16.260;2023-08-06T07:48:10;16.70;99.90
48206;DHT22;33995;48.202;16.260;2023-08-06T07:50:42;16.80;99.90
48206;DHT22;33995;48.202;16.260;2023-08-06T07:53:16;16.80;99.90
48206;DHT22;33995;48.202;16.260;2023-08-06T07:55:49;16.80;99.90
48206;DHT22;33995;48.202;16.260;2023-08-06T07:58:23;16.80;99.90
48206;DHT22;33995;48.202;16.260;2023-08-06T08:00:51;16.80;99.90
48206;DHT22;33995;48.202;16.260;2023-08-06T08:03:19;16.80;99.90
48206;DHT22;33995;48.202;16.260;2023-08-06T08:05:56;16.80;99.90
48206;DHT22;33995;48.202;16.260;2023-08-06T08:08:25;16.80;99.90
48206;DHT22;33995;48.202;16.260;2023-08-06T08:10:54;16.80;99.90
48206;DHT22;33995;48.202;16.260;2023-08-06T08:13:26;16.80;99.90
48206;DHT22;33995;48.202;16.260;2023-08-06T08:16:00;16.80;99.90
48206;DHT22;33995;48.202;16.260;2023-08-06T08:18:31;16.80;99.90
48206;DHT22;33995;48.202;16.260;2023-08-06T08:21:03;16.90;99.90
48206;DHT22;33995;48.202;16.260;2023-08-06T08:23:33;16.90;99.90
48206;DHT22;33995;48.202;16.260;2023-08-06T08:26:05;16.90;99.90
48206;DHT22;33995;48.202;16.260;2023-08-06T08:28:37;16.90;99.90
48206;DHT22;33995;48.202;16.260;2023-08-06T08:31:10;16.90;99.90
48206;DHT22;33995;48.202;16.260;2023-08-06T08:33:52;16.90;99.90
48206;DHT22;33995;48.202;16.260;2023-08-06T08:36:24;16.90;99.90
48206;DHT22;33995;48.202;16.260;2023-08-06T08:38:53;16.80;99.90
48206;DHT22;33995;48.202;16.260;2023-08-06T08:41:28;16.80;99.90
48206;DHT22;33995;48.202;16.260;2023-08-06T08:43:59;16.90;99.90
48206;DHT22;33995;48.202;16.260;2023-08-06T08:46:31;17.00;99.90
48206;DHT22;33995;48.202;16.260;2023-08-06T08:49:04;17.00;99.90
48206;DHT22;33995;48.202;16.260;2023-08-06T08:51:33;17.10;99.90
48206;DHT22;33995;48.202;16.260;2023-08-06T08:54:16;17.10;99.90
48206;DHT22;33995;48.202;16.260;2023-08-06T08:56:45;17.00;99.90
48206;DHT22;33995;48.202;16.260;2023-08-06T08:59:15;17.00;99.90
48206;DHT22;33995;48.202;16.260;2023-08-06T09:01:47;17.00;99.90
48206;DHT22;33995;48.202;16.260;2023-08-06T09:04:20;16.90;99.90
48206;DHT22;33995;48.202;16.260;2023-08-06T09:06:50;16.90;99.90
48206;DHT22;33995;48.202;16.260;2023-08-06T09:09:32;16.90;99.90
48206;DHT22;33995;48.202;16.260;2023-08-06T09:12:16;16.80;99.90
48206;DHT22;33995;48.202;16.260;2023-08-06T09:14:46;16.80;99.90
48206;DHT22;33995;48.202;16.260;2023-08-06T09:17:18;16.80;99.90
48206;DHT22;33995;48.202;16.260;2023-08-06T09:19:49;16.80;99.90
48206;DHT22;33995;48.202;16.260;2023-08-06T09:22:23;16.70;99.90
48206;DHT22;33995;48.202;16.260;2023-08-06T09:24:53;16.70;99.90
48206;DHT22;33995;48.202;16.260;2023-08-06T09:27:25;16.70;99.90
48206;DHT22;33995;48.202;16.260;2023-08-06T09:29:56;16.60;99.90
48206;DHT22;33995;48.202;16.260;2023-08-06T09:32:26;16.60;99.90
48206;DHT22;33995;48.202;16.260;2023-08-06T09:34:56;16.50;99.90
48206;DHT22;33995;48.202;16.260;2023-08-06T09:37:35;16.40;99.90
48206;DHT22;33995;48.202;16.260;2023-08-06T09:40:29;16.40;99.90
48206;DHT22;33995;48.202;16.260;2023-08-06T09:42:59;16.30;99.90
48206;DHT22;33995;48.202;16.260;2023-08-06T09:45:34;16.30;99.90
48206;DHT22;33995;48.202;16.260;2023-08-06T09:48:06;16.30;99.90
48206;DHT22;33995;48.202;16.260;2023-08-06T09:50:38;16.30;99.90
48206;DHT22;33995;48.202;16.260;2023-08-06T09:53:09;16.30;99.90
48206;DHT22;33995;48.202;16.260;2023-08-06T09:55:40;16.30;99.90
48206;DHT22;33995;48.202;16.260;2023-08-06T09:58:11;16.40;99.90
48206;DHT22;33995;48.202;16.260;2023-08-06T10:00:40;16.40;99.90
48206;DHT22;33995;48.202;16.260;2023-08-06T10:03:09;16.50;99.90
48206;DHT22;33995;48.202;16.260;2023-08-06T10:05:40;16.50;99.90
48206;DHT22;33995;48.202;16.260;2023-08-06T10:08:07;16.60;99.90
48206;DHT22;33995;48.202;16.260;2023-08-06T10:10:40;16.70;99.90
48206;DHT22;33995;48.202;16.260;2023-08-06T10:13:11;16.70;99.90
48206;DHT22;33995;48.202;16.260;2023-08-06T10:15:41;16.70;99.90
48206;DHT22;33995;48.202;16.260;2023-08-06T10:18:10;16.70;99.90
48206;DHT22;33995;48.202;16.260;2023-08-06T10:20:43;16.70;99.90
48206;DHT22;33995;48.202;16.260;2023-08-06T10:23:12;16.80;99.90
48206;DHT22;33995;48.202;16.260;2023-08-06T10:25:55;16.80;99.90
48206;DHT22;33995;48.202;16.260;2023-08-06T10:28:34;16.90;99.90
48206;DHT22;33995;48.202;16.260;2023-08-06T10:31:10;16.90;99.90
48206;DHT22;33995;48.202;16.260;2023-08-06T10:33:48;17.00;99.90
48206;DHT22;33995;48.202;16.260;2023-08-06T10:36:18;17.00;99.90
48206;DHT22;33995;48.202;16.260;2023-08-06T10:38:51;17.00;99.90
48206;DHT22;33995;48.202;16.260;2023-08-06T10:41:28;17.00;99.90
48206;DHT22;33995;48.202;16.260;2023-08-06T10:44:08;17.10;99.90
48206;DHT22;33995;48.202;16.260;2023-08-06T10:46:39;17.20;99.90
48206;DHT22;33995;48.202;16.260;2023-08-06T10:49:17;17.20;99.90
48206;DHT22;33995;48.202;16.260;2023-08-06T10:51:47;17.20;99.90
48206;DHT22;33995;48.202;16.260;2023-08-06T10:54:24;17.30;99.90
48206;DHT22;33995;48.202;16.260;2023-08-06T10:56:55;17.30;99.90
48206;DHT22;33995;48.202;16.260;2023-08-06T10:59:25;17.20;99.90
48206;DHT22;33995;48.202;16.260;2023-08-06T11:01:56;17.20;99.90
48206;DHT22;33995;48.202;16.260;2023-08-06T11:04:31;17.20;99.90
48206;DHT22;33995;48.202;16.260;2023-08-06T11:07:03;17.10;99.90
48206;DHT22;33995;48.202;16.260;2023-08-06T11:09:31;17.20;99.90
48206;DHT22;33995;48.202;16.260;2023-08-06T11:12:08;17.20;99.90
48206;DHT22;33995;48.202;16.260;2023-08-06T11:14:38;17.20;99.90
48206;DHT22;33995;48.202;16.260;2023-08-06T11:17:08;17.20;99.90
48206;DHT22;33995;48.202;16.260;2023-08-06T11:19:40;17.10;99.90
48206;DHT22;33995;48.202;16.260;2023-08-06T11:22:09;17.10;99.90
48206;DHT22;33995;48.202;16.260;2023-08-06T11:24:48;17.00;99.90
48206;DHT22;33995;48.202;16.260;2023-08-06T11:27:21;17.00;99.90
48206;DHT22;33995;48.202;16.260;2023-08-06T11:29:52;16.80;99.90
48206;DHT22;33995;48.202;16.260;2023-08-06T11:32:20;16.80;99.90
48206;DHT22;33995;48.202;16.260;2023-08-06T11:34:56;16.80;99.90
48206;DHT22;33995;48.202;16.260;2023-08-06T11:37:28;16.80;99.90
48206;DHT22;33995;48.202;16.260;2023-08-06T11:39:59;16.80;99.90
48206;DHT22;33995;48.202;16.260;2023-08-06T11:42:31;16.70;99.90
48206;DHT22;33995;48.202;16.260;2023-08-06T11:45:03;16.70;99.90
48206;DHT22;33995;48.202;16.260;2023-08-06T11:47:32;16.60;99.90
48206;DHT22;33995;48.202;16.260;2023-08-06T11:50:02;16.50;99.90
48206;DHT22;33995;48.202;16.260;2023-08-06T11:52:40;16.50;99.90
48206;DHT22;33995;48.202;16.260;2023-08-06T11:55:15;16.50;99.90
48206;DHT22;33995;48.202;16.260;2023-08-06T11:57:44;16.50;99.90
48206;DHT22;33995;48.202;16.260;2023-08-06T12:00:17;16.50;99.90
48206;DHT22;33995;48.202;16.260;2023-08-06T12:02:50;16.50;99.90
48206;DHT22;33995;48.202;16.260;2023-08-06T12:05:32;16.40;99.90
48206;DHT22;33995;48.202;16.260;2023-08-06T12:08:12;16.50;99.90
48206;DHT22;33995;48.202;16.260;2023-08-06T12:10:43;16.50;99.90
48206;DHT22;33995;48.202;16.260;2023-08-06T12:13:13;16.50;99.90
48206;DHT22;33995;48.202;16.260;2023-08-06T12:15:45;16.50;99.90
48206;DHT22;33995;48.202;16.260;2023-08-06T12:18:17;16.50;99.90
48206;DHT22;33995;48.202;16.260;2023-08-06T12:20:46;16.50;99.90
48206;DHT22;33995;48.202;16.260;2023-08-06T12:23:16;16.60;99.90
48206;DHT22;33995;48.202;16.260;2023-08-06T12:25:46;16.60;99.90
48206;DHT22;33995;48.202;16.260;2023-08-06T12:28:14;16.60;99.90
48206;DHT22;33995;48.202;16.260;2023-08-06T12:30:46;16.60;99.90
48206;DHT22;33995;48.202;16.260;2023-08-06T12:33:18;16.50;99.90
48206;DHT22;33995;48.202;16.260;2023-08-06T12:35:50;16.60;99.90
48206;DHT22;33995;48.202;16.260;2023-08-06T12:38:27;16.60;99.90
48206;DHT22;33995;48.202;16.260;2023-08-06T12:41:03;16.60;99.90
48206;DHT22;33995;48.202;16.260;2023-08-06T12:43:34;16.60;99.90
48206;DHT22;33995;48.202;16.260;2023-08-06T12:46:04;16.70;99.90
48206;DHT22;33995;48.202;16.260;2023-08-06T12:48:33;16.70;99.90
48206;DHT22;33995;48.202;16.260;2023-08-06T12:51:05;16.70;99.90
48206;DHT22;33995;48.202;16.260;2023-08-06T12:53:37;16.70;99.90
48206;DHT22;33995;48.202;16.260;2023-08-06T12:56:08;16.80;99.90
48206;DHT22;33995;48.202;16.260;2023-08-06T12:58:39;16.80;99.90
48206;DHT22;33995;48.202;16.260;2023-08-06T13:01:09;16.80;99.90
48206;DHT22;33995;48.202;16.260;2023-08-06T13:03:43;16.90;99.90
48206;DHT22;33995;48.202;16.260;2023-08-06T13:06:17;16.90;99.90
48206;DHT22;33995;48.202;16.260;2023-08-06T13:08:52;17.00;99.90
48206;DHT22;33995;48.202;16.260;2023-08-06T13:11:36;17.00;99.90
48206;DHT22;33995;48.202;16.260;2023-08-06T13:14:14;17.10;99.90
48206;DHT22;33995;48.202;16.260;2023-08-06T13:16:53;17.20;99.90
48206;DHT22;33995;48.202;16.260;2023-08-06T13:19:27;17.10;99.90
48206;DHT22;33995;48.202;16.260;2023-08-06T13:22:04;17.20;99.90
48206;DHT22;33995;48.202;16.260;2023-08-06T13:24:47;17.30;99.90
48206;DHT22;33995;48.202;16.260;2023-08-06T13:27:25;17.30;99.90
48206;DHT22;33995;48.202;16.260;2023-08-06T13:30:00;17.40;99.90
48206;DHT22;33995;48.202;16.260;2023-08-06T13:32:36;17.50;99.90
48206;DHT22;33995;48.202;16.260;2023-08-06T13:35:13;17.60;99.90
48206;DHT22;33995;48.202;16.260;2023-08-06T13:37:44;17.70;99.90
48206;DHT22;33995;48.202;16.260;2023-08-06T13:40:28;17.70;99.90
48206;DHT22;33995;48.202;16.260;2023-08-06T13:43:01;17.70;99.90
48206;DHT22;33995;48.202;16.260;2023-08-06T13:45:39;17.80;99.90
48206;DHT22;33995;48.202;16.260;2023-08-06T13:48:15;17.80;99.90
48206;DHT22;33995;48.202;16.260;2023-08-06T13:50:48;17.90;99.90
48206;DHT22;33995;48.202;16.260;2023-08-06T13:53:24;17.90;99.90
48206;DHT22;33995;48.202;16.260;2023-08-06T13:56:04;18.00;99.90
48206;DHT22;33995;48.202;16.260;2023-08-06T13:58:36;18.00;99.90
48206;DHT22;33995;48.202;16.260;2023-08-06T14:01:12;18.00;99.90
48206;DHT22;33995;48.202;16.260;2023-08-06T14:03:51;18.10;99.90
48206;DHT22;33995;48.202;16.260;2023-08-06T14:06:25;18.10;99.90
48206;DHT22;33995;48.202;16.260;2023-08-06T14:08:57;18.10;99.90
48206;DHT22;33995;48.202;16.260;2023-08-06T14:11:34;18.10;99.90
48206;DHT22;33995;48.202;16.260;2023-08-06T14:14:06;18.10;99.90
48206;DHT22;33995;48.202;16.260;2023-08-06T14:16:38;18.10;99.90
48206;DHT22;33995;48.202;16.260;2023-08-06T14:19:12;18.20;99.90
48206;DHT22;33995;48.202;16.260;2023-08-06T14:21:44;18.20;99.90
48206;DHT22;33995;48.202;16.260;2023-08-06T14:24:25;18.20;99.90
48206;DHT22;33995;48.202;16.260;2023-08-06T14:26:59;18.20;99.90
48206;DHT22;33995;48.202;16.260;2023-08-06T14:29:31;18.10;99.90
48206;DHT22;33995;48.202;16.260;2023-08-06T14:32:00;18.10;99.90
48206;DHT22;33995;48.202;16.260;2023-08-06T14:34:35;18.00;99.90
48206;DHT22;33995;48.202;16.260;2023-08-06T14:37:12;18.00;99.90
48206;DHT22;33995;48.202;16.260;2023-08-06T14:39:42;17.90;99.90
48206;DHT22;33995;48.202;16.260;2023-08-06T14:42:18;17.80;99.90
48206;DHT22;33995;48.202;16.260;2023-08-06T14:44:51;17.80;99.90
48206;DHT22;33995;48.202;16.260;2023-08-06T14:47:24;17.90;99.90
48206;DHT22;33995;48.202;16.260;2023-08-06T14:50:03;17.90;99.90
48206;DHT22;33995;48.202;16.260;2023-08-06T14:52:45;18.00;99.90
48206;DHT22;33995;48.202;16.260;2023-08-06T14:55:27;18.00;99.90
48206;DHT22;33995;48.202;16.260;2023-08-06T14:58:01;18.00;99.90
48206;DHT22;33995;48.202;16.260;2023-08-06T15:00:35;18.00;99.90
48206;DHT22;33995;48.202;16.260;2023-08-06T15:03:13;18.10;99.90
48206;DHT22;33995;48.202;16.260;2023-08-06T15:06:11;18.00;99.90
48206;DHT22;33995;48.202;16.260;2023-08-06T15:08:59;17.90;99.90
48206;DHT22;33995;48.202;16.260;2023-08-06T15:11:36;17.90;99.90
48206;DHT22;33995;48.202;16.260;2023-08-06T15:14:13;17.90;99.90
48206;DHT22;33995;48.202;16.260;2023-08-06T15:17:01;17.80;99.90
48206;DHT22;33995;48.202;16.260;2023-08-06T15:19:33;17.80;99.90
48206;DHT22;33995;48.202;16.260;2023-08-06T15:22:08;17.70;99.90
48206;DHT22;33995;48.202;16.260;2023-08-06T15:25:03;17.70;99.90
48206;DHT22;33995;48.202;16.260;2023-08-06T15:27:37;17.70;99.90
48206;DHT22;33995;48.202;16.260;2023-08-06T15:30:14;17.80;99.90
48206;DHT22;33995;48.202;16.260;2023-08-06T15:32:52;17.80;99.90
48206;DHT22;33995;48.202;16.260;2023-08-06T15:35:28;17.80;99.90
48206;DHT22;33995;48.202;16.260;2023-08-06T15:38:07;17.90;99.90
48206;DHT22;33995;48.202;16.260;2023-08-06T15:40:42;18.00;99.90
48206;DHT22;33995;48.202;16.260;2023-08-06T15:43:25;18.00;99.90
48206;DHT22;33995;48.202;16.260;2023-08-06T15:46:01;18.10;99.90
48206;DHT22;33995;48.202;16.260;2023-08-06T15:48:46;18.20;99.90
48206;DHT22;33995;48.202;16.260;2023-08-06T15:51:21;18.20;99.90
48206;DHT22;33995;48.202;16.260;2023-08-06T15:54:01;18.30;99.90
48206;DHT22;33995;48.202;16.260;2023-08-06T15:56:40;18.30;99.90
48206;DHT22;33995;48.202;16.260;2023-08-06T15:59:27;18.30;99.90
48206;DHT22;33995;48.202;16.260;2023-08-06T16:02:03;18.30;99.90